Time;durP1;ratioP1;P1;durP2;ratioP2;P2;SDS_P1;SDS_P2;PMS_P1;PMS_P2;Temp;Humidity;BMP_temperature;BMP_pressure;BME280_temperature;BME280_humidity;BME280_pressure;Samples;Min_cycle;Max_cycle;Signal;HPM_P1;HPM_P2
2022/12/13 00:01:15;;;;;;;1.30;0.40;;;23.40;99.90;;;;;;5083406;28;20181;-79
2022/12/13 00:03:46;;;;;;;0.88;0.43;;;23.50;99.90;;;;;;5084131;28;20185;-79
2022/12/13 00:06:17;;;;;;;1.38;0.30;;;23.70;99.90;;;;;;5084876;28;20220;-77
2022/12/13 00:08:48;;;;;;;1.30;0.30;;;23.70;99.90;;;;;;5084374;28;20209;-78
2022/12/13 00:11:19;;;;;;;1.50;0.20;;;23.80;99.90;;;;;;5085633;28;20189;-78
2022/12/13 00:13:50;;;;;;;3.72;0.50;;;24.10;99.90;;;;;;5086026;28;20267;-78
2022/12/13 00:16:24;;;;;;;3.33;0.50;;;24.30;99.90;;;;;;5082581;28;20196;-77
2022/12/13 00:18:57;;;;;;;0.63;0.40;;;24.40;99.90;;;;;;5085032;28;20191;-78
2022/12/13 00:21:29;;;;;;;2.05;0.40;;;24.40;99.90;;;;;;5085356;28;20189;-79
2022/12/13 00:24:02;;;;;;;2.95;0.40;;;24.60;99.90;;;;;;5084193;28;20184;-78
2022/12/13 00:26:33;;;;;;;1.85;0.22;;;24.80;99.90;;;;;;5084962;28;20220;-80
2022/12/13 00:29:06;;;;;;;1.98;0.40;;;24.90;99.90;;;;;;5085837;28;20193;-82
2022/12/13 00:31:40;;;;;;;1.73;0.40;;;25.10;99.90;;;;;;5085739;28;20640;-86
2022/12/13 00:34:10;;;;;;;3.20;0.30;;;25.10;99.90;;;;;;5083463;28;20181;-80
2022/12/13 00:36:41;;;;;;;2.90;0.47;;;25.30;99.90;;;;;;5085556;28;20195;-79
2022/12/13 00:39:12;;;;;;;3.08;0.30;;;25.40;99.90;;;;;;5082628;28;20231;-79
2022/12/13 00:41:44;;;;;;;4.50;0.40;;;25.60;99.90;;;;;;5083138;28;20189;-79
2022/12/13 00:44:15;;;;;;;1.05;0.32;;;25.80;99.90;;;;;;5084847;28;20636;-80
2022/12/13 00:46:50;;;;;;;1.60;0.40;;;25.80;99.90;;;;;;5083237;28;20560;-80
2022/12/13 00:49:21;;;;;;;1.83;0.40;;;25.90;99.90;;;;;;5084731;28;20184;-81
2022/12/13 00:51:52;;;;;;;4.55;0.50;;;25.80;99.90;;;;;;5085126;28;20557;-80
2022/12/13 00:54:22;;;;;;;3.83;1.58;;;25.70;99.90;;;;;;5084065;28;20206;-80
2022/12/13 00:56:53;;;;;;;0.95;0.45;;;25.70;99.90;;;;;;5085103;28;20196;-80
2022/12/13 00:59:24;;;;;;;1.77;0.40;;;25.70;99.90;;;;;;5083854;28;20200;-79
2022/12/13 01:01:56;;;;;;;1.08;0.60;;;25.80;99.90;;;;;;5084107;28;20199;-80
2022/12/13 01:04:27;;;;;;;0.77;0.40;;;25.70;99.90;;;;;;5084404;28;20193;-81
2022/12/13 01:06:59;;;;;;;0.65;0.30;;;25.80;99.90;;;;;;5082863;28;20187;-80
2022/12/13 01:09:31;;;;;;;2.97;1.08;;;25.90;99.90;;;;;;5084628;28;20276;-81
2022/12/13 01:12:03;;;;;;;4.47;0.43;;;25.90;99.90;;;;;;5082664;28;20201;-83
2022/12/13 01:14:35;;;;;;;1.13;0.35;;;25.90;99.90;;;;;;5084722;28;20221;-80
2022/12/13 01:17:08;;;;;;;2.60;0.75;;;26.00;99.90;;;;;;5082184;28;20185;-80
2022/12/13 01:19:39;;;;;;;0.93;0.38;;;25.80;99.90;;;;;;5083052;28;20191;-80
2022/12/13 01:22:10;;;;;;;1.33;0.40;;;26.10;99.90;;;;;;5082466;28;20189;-80
2022/12/13 01:24:41;;;;;;;7.75;0.65;;;26.10;99.90;;;;;;5082038;28;20234;-84
2022/12/13 01:27:12;;;;;;;45.38;9.23;;;26.10;99.90;;;;;;5083598;28;20212;-79
2022/12/13 01:29:43;;;;;;;3.58;1.35;;;26.10;99.90;;;;;;5081761;28;20640;-79
2022/12/13 01:32:15;;;;;;;2.95;1.25;;;26.40;99.90;;;;;;5085188;28;20211;-79
2022/12/13 01:34:46;;;;;;;2.33;0.52;;;26.50;99.90;;;;;;5084249;28;20185;-79
2022/12/13 01:37:19;;;;;;;3.85;0.65;;;26.50;99.90;;;;;;5083452;28;20624;-84
2022/12/13 01:39:50;;;;;;;3.28;0.60;;;26.80;99.90;;;;;;5084268;28;20190;-79
2022/12/13 01:42:20;;;;;;;1.83;0.50;;;27.00;99.90;;;;;;5082662;28;20577;-80
2022/12/13 01:45:23;;;;;;;2.38;0.57;;;27.10;99.90;;;;;;5084534;28;20654;-79
2022/12/13 01:47:59;;;;;;;2.58;0.45;;;27.10;99.90;;;;;;5084045;28;20576;-78
2022/12/13 01:50:33;;;;;;;1.77;0.43;;;27.10;99.90;;;;;;5080751;28;20180;-79
2022/12/13 01:53:07;;;;;;;2.45;0.60;;;27.20;99.90;;;;;;5081666;28;20186;-79
2022/12/13 01:55:40;;;;;;;1.83;0.40;;;27.20;99.90;;;;;;5084288;28;20189;-79
2022/12/13 01:58:12;;;;;;;2.95;0.60;;;27.20;99.90;;;;;;5082069;28;20203;-80
2022/12/13 02:00:43;;;;;;;1.38;0.40;;;27.10;99.90;;;;;;5084271;28;20197;-79
2022/12/13 02:03:17;;;;;;;1.13;0.40;;;27.00;99.80;;;;;;5081585;28;20185;-79
2022/12/13 02:05:55;;;;;;;0.90;0.40;;;27.00;99.90;;;;;;5082354;28;20189;-80
2022/12/13 02:08:27;;;;;;;1.65;0.60;;;26.90;99.90;;;;;;5083086;28;20212;-79
2022/12/13 02:10:59;;;;;;;1.77;0.47;;;27.10;99.90;;;;;;5083074;28;20191;-80
2022/12/13 02:13:30;;;;;;;1.85;0.50;;;27.10;99.90;;;;;;5083576;28;20189;-81
2022/12/13 02:16:08;;;;;;;1.80;0.32;;;27.30;99.90;;;;;;5081433;28;20191;-80
2022/12/13 02:18:56;;;;;;;1.60;0.47;;;27.30;99.90;;;;;;5080814;28;20190;-81
2022/12/13 02:21:34;;;;;;;1.70;0.50;;;27.40;98.40;;;;;;5079781;28;20203;-83
2022/12/13 02:24:44;;;;;;;1.65;0.43;;;27.20;99.90;;;;;;5081714;28;20215;-78
2022/12/13 02:27:28;;;;;;;1.27;0.40;;;27.20;99.90;;;;;;5071563;28;20250;-82
2022/12/13 02:30:25;;;;;;;1.25;0.35;;;27.40;99.90;;;;;;5081492;28;20204;-80
2022/12/13 02:33:33;;;;;;;3.38;0.52;;;27.40;99.90;;;;;;5083215;28;20201;-80
2022/12/13 02:36:14;;;;;;;1.70;0.50;;;27.50;99.90;;;;;;5081709;28;20189;-79
2022/12/13 02:38:54;;;;;;;2.28;0.40;;;27.60;99.40;;;;;;5082848;28;20234;-81
2022/12/13 02:41:33;;;;;;;0.65;0.30;;;27.60;99.90;;;;;;5084036;28;20227;-82
2022/12/13 02:44:10;;;;;;;2.83;0.55;;;27.70;99.90;;;;;;5083072;28;20644;-79
2022/12/13 02:46:51;;;;;;;4.07;0.52;;;27.80;99.90;;;;;;5080847;28;20196;-79
2022/12/13 02:49:24;;;;;;;1.27;0.57;;;27.70;99.90;;;;;;5084777;28;20219;-80
2022/12/13 02:51:55;;;;;;;3.28;0.30;;;27.80;99.90;;;;;;5083538;28;20716;-79
2022/12/13 02:54:27;;;;;;;2.35;0.50;;;27.80;99.90;;;;;;5080650;28;20272;-79
2022/12/13 02:56:59;;;;;;;1.52;0.50;;;27.80;99.90;;;;;;5088657;28;20279;-79
2022/12/13 02:59:36;;;;;;;2.70;0.43;;;27.70;99.90;;;;;;5075772;28;20200;-79
2022/12/13 03:02:19;;;;;;;1.35;0.30;;;27.70;99.20;;;;;;5092697;28;20191;-78
2022/12/13 03:08:00;;;;;;;3.33;0.50;;;27.70;98.70;;;;;;5087965;28;20199;-81
2022/12/13 03:10:37;;;;;;;1.92;0.40;;;27.70;98.80;;;;;;5097107;28;20188;-79
2022/12/13 03:16:00;;;;;;;1.42;0.47;;;27.80;97.50;;;;;;5087544;28;20564;-83
2022/12/13 03:18:36;;;;;;;1.75;0.40;;;27.70;97.80;;;;;;5091227;28;20201;-79
2022/12/13 03:21:09;;;;;;;1.05;0.35;;;27.60;96.10;;;;;;5092542;28;20195;-77
2022/12/13 03:23:41;;;;;;;1.38;0.30;;;27.60;97.70;;;;;;5094864;28;20198;-78
2022/12/13 03:26:15;;;;;;;1.13;0.30;;;27.50;97.50;;;;;;5090429;28;20222;-77
2022/12/13 03:28:45;;;;;;;1.00;0.30;;;27.40;98.00;;;;;;5092841;28;20222;-77
2022/12/13 03:31:16;;;;;;;2.72;0.47;;;27.40;99.90;;;;;;5090134;28;20271;-82
2022/12/13 03:33:49;;;;;;;4.47;0.50;;;27.50;99.90;;;;;;5083570;28;20193;-78
2022/12/13 03:36:21;;;;;;;1.67;0.60;;;27.40;99.90;;;;;;5087592;28;20197;-77
2022/12/13 03:38:53;;;;;;;1.52;0.32;;;27.20;99.90;;;;;;5086628;28;20737;-79
2022/12/13 03:41:30;;;;;;;3.35;0.40;;;27.10;99.90;;;;;;5087375;28;20193;-77
2022/12/13 03:44:01;;;;;;;2.55;0.40;;;26.90;99.90;;;;;;5090373;28;20199;-76
2022/12/13 03:46:34;;;;;;;2.50;0.40;;;26.90;99.90;;;;;;5084381;28;20683;-78
2022/12/13 03:49:06;;;;;;;3.60;0.47;;;26.80;99.90;;;;;;5076097;28;20221;-75
2022/12/13 03:51:37;;;;;;;0.77;0.30;;;26.70;99.90;;;;;;5075786;28;20550;-78
2022/12/13 03:54:08;;;;;;;2.22;0.40;;;26.60;99.90;;;;;;5076045;28;20225;-76
2022/12/13 03:56:39;;;;;;;1.98;0.40;;;26.50;99.90;;;;;;5075968;28;20556;-79
2022/12/13 03:59:10;;;;;;;0.85;0.30;;;26.50;99.90;;;;;;5075886;28;20211;-77
2022/12/13 04:01:41;;;;;;;2.63;0.47;;;26.20;99.90;;;;;;5093124;28;20686;-79
2022/12/13 04:04:13;;;;;;;2.75;0.60;;;26.00;99.90;;;;;;5095994;28;20211;-78
2022/12/13 04:06:44;;;;;;;2.17;0.40;;;25.90;99.90;;;;;;5095632;28;20188;-77
2022/12/13 04:09:18;;;;;;;2.25;0.40;;;25.90;99.90;;;;;;5082978;28;20220;-78
2022/12/13 04:14:35;;;;;;;2.30;0.45;;;25.70;99.90;;;;;;5094875;28;20655;-78
2022/12/13 04:17:06;;;;;;;2.20;0.38;;;25.60;99.90;;;;;;5095749;28;20204;-78
2022/12/13 04:19:39;;;;;;;0.77;0.35;;;25.50;99.90;;;;;;5095741;28;20207;-77
2022/12/13 04:22:10;;;;;;;1.45;0.40;;;25.60;99.90;;;;;;5095684;28;20277;-78
2022/12/13 04:24:41;;;;;;;2.88;0.40;;;25.60;99.90;;;;;;5094849;28;20184;-76
2022/12/13 04:27:12;;;;;;;1.48;0.30;;;25.60;99.90;;;;;;5086873;28;20189;-77
2022/12/13 04:29:43;;;;;;;1.30;0.52;;;25.70;99.90;;;;;;5075341;28;20326;-77
2022/12/13 04:32:14;;;;;;;1.15;0.20;;;25.60;99.90;;;;;;5081129;28;20185;-78
2022/12/13 04:34:46;;;;;;;0.85;0.30;;;25.50;99.90;;;;;;5082914;28;20196;-76
2022/12/13 04:37:17;;;;;;;2.83;0.40;;;25.40;99.90;;;;;;5090389;28;20203;-80
2022/12/13 04:39:48;;;;;;;0.90;0.30;;;25.30;99.90;;;;;;5095517;28;20192;-80
2022/12/13 04:42:19;;;;;;;3.67;0.38;;;25.30;99.90;;;;;;5095406;28;20201;-77
2022/12/13 04:44:50;;;;;;;1.67;0.30;;;25.20;99.90;;;;;;5095141;28;20271;-80
2022/12/13 04:47:21;;;;;;;1.63;0.40;;;25.20;99.90;;;;;;5095365;28;20192;-76
2022/12/13 04:49:53;;;;;;;1.35;0.30;;;25.00;99.90;;;;;;5095082;28;20679;-76
2022/12/13 04:52:25;;;;;;;2.75;0.40;;;24.80;99.90;;;;;;5095159;28;20203;-79
2022/12/13 04:54:56;;;;;;;1.77;0.40;;;24.90;99.90;;;;;;5095118;28;20241;-77
2022/12/13 04:57:26;;;;;;;2.30;0.47;;;25.00;99.90;;;;;;5095158;28;20193;-77
2022/12/13 04:59:57;;;;;;;1.20;0.30;;;25.10;99.90;;;;;;5086299;28;20197;-79
2022/12/13 05:02:28;;;;;;;3.17;0.40;;;25.20;99.90;;;;;;5093203;28;20232;-77
2022/12/13 05:05:01;;;;;;;1.70;0.40;;;25.10;99.90;;;;;;5084308;28;20192;-77
2022/12/13 05:07:32;;;;;;;2.83;0.30;;;25.00;99.90;;;;;;5087658;28;20212;-77
2022/12/13 05:10:03;;;;;;;1.85;0.30;;;24.90;99.90;;;;;;5093712;28;20219;-78
2022/12/13 05:12:33;;;;;;;2.63;0.60;;;24.90;99.90;;;;;;5094138;28;20204;-76
2022/12/13 05:15:04;;;;;;;3.22;0.40;;;24.90;99.90;;;;;;5093149;28;20563;-77
2022/12/13 05:17:35;;;;;;;2.47;0.30;;;24.90;99.90;;;;;;5090505;28;20219;-80
2022/12/13 05:20:09;;;;;;;3.10;0.52;;;24.90;99.90;;;;;;5093077;28;20200;-79
2022/12/13 05:22:39;;;;;;;3.03;0.40;;;24.80;99.90;;;;;;5089530;28;20199;-79
2022/12/13 05:25:12;;;;;;;5.18;0.40;;;24.80;99.90;;;;;;5088682;28;20212;-77
2022/12/13 05:27:43;;;;;;;1.35;0.43;;;24.80;99.90;;;;;;5085378;28;20192;-77
2022/12/13 05:30:14;;;;;;;2.78;0.50;;;24.90;99.90;;;;;;5094212;28;20216;-80
2022/12/13 05:32:47;;;;;;;1.45;0.20;;;24.80;99.90;;;;;;5074846;28;20195;-77
2022/12/13 05:35:21;;;;;;;2.72;0.40;;;24.50;99.90;;;;;;5081755;28;20656;-78
2022/12/13 05:37:52;;;;;;;2.17;0.43;;;24.40;99.90;;;;;;5094294;28;20224;-77
2022/12/13 05:40:23;;;;;;;2.55;0.50;;;24.50;99.90;;;;;;5094518;28;20193;-79
2022/12/13 05:42:54;;;;;;;1.30;0.30;;;24.40;99.90;;;;;;5094816;28;20192;-78
2022/12/13 05:45:25;;;;;;;3.08;0.50;;;24.50;99.90;;;;;;5094444;28;20654;-77
2022/12/13 05:47:56;;;;;;;5.95;0.70;;;24.60;99.90;;;;;;5094672;28;20193;-78
2022/12/13 05:50:28;;;;;;;3.67;0.60;;;24.50;99.90;;;;;;5095956;28;20307;-80
2022/12/13 05:52:59;;;;;;;4.63;0.50;;;24.30;99.90;;;;;;5087202;28;20199;-79
2022/12/13 05:55:30;;;;;;;2.95;0.50;;;24.30;99.90;;;;;;5088103;28;20184;-77
2022/12/13 05:58:01;;;;;;;2.63;0.50;;;24.30;99.90;;;;;;5094047;28;20275;-80
2022/12/13 06:00:32;;;;;;;2.20;0.65;;;24.30;99.90;;;;;;5094382;28;20194;-77
2022/12/13 06:03:03;;;;;;;1.40;0.30;;;24.40;99.90;;;;;;5093918;28;20188;-77
2022/12/13 06:05:35;;;;;;;1.60;0.30;;;24.30;99.90;;;;;;5094015;28;20566;-79
2022/12/13 06:08:06;;;;;;;2.63;0.40;;;24.10;99.90;;;;;;5093993;28;20188;-79
2022/12/13 06:10:37;;;;;;;2.03;0.40;;;24.10;99.90;;;;;;5093880;28;20220;-77
2022/12/13 06:13:08;;;;;;;1.98;0.32;;;24.10;99.90;;;;;;5083744;28;20192;-80
2022/12/13 06:15:41;;;;;;;1.95;0.50;;;24.00;99.90;;;;;;5090072;28;20204;-77
2022/12/13 06:18:11;;;;;;;1.58;0.45;;;23.90;99.90;;;;;;5085289;28;20214;-79
2022/12/13 06:20:45;;;;;;;2.22;0.50;;;23.90;99.90;;;;;;5093886;28;20188;-77
2022/12/13 06:23:16;;;;;;;1.38;0.45;;;24.00;99.90;;;;;;5073594;28;20658;-79
2022/12/13 06:25:48;;;;;;;3.90;0.40;;;24.00;99.90;;;;;;5080236;28;20216;-78
2022/12/13 06:28:19;;;;;;;2.63;0.70;;;24.00;99.90;;;;;;5078222;28;20185;-81
2022/12/13 06:30:53;;;;;;;0.63;0.30;;;24.00;99.90;;;;;;5084068;28;20234;-79
2022/12/13 06:33:24;;;;;;;3.65;0.52;;;24.00;99.90;;;;;;5086947;28;20220;-79
2022/12/13 06:35:59;;;;;;;1.55;0.40;;;23.90;99.90;;;;;;5081775;28;20577;-78
2022/12/13 06:38:30;;;;;;;7.53;0.45;;;23.80;99.90;;;;;;5083100;28;20220;-78
2022/12/13 06:41:10;;;;;;;1.23;0.30;;;23.70;99.90;;;;;;5077969;28;20189;-79
2022/12/13 06:43:43;;;;;;;3.22;0.50;;;23.60;99.90;;;;;;5081936;28;20195;-77
2022/12/13 06:46:15;;;;;;;3.20;0.50;;;23.40;99.90;;;;;;5077494;28;20193;-79
2022/12/13 06:48:46;;;;;;;2.53;0.50;;;23.40;99.90;;;;;;5085113;28;20184;-78
2022/12/13 06:51:19;;;;;;;4.38;0.65;;;23.30;99.90;;;;;;5078573;28;20196;-79
2022/12/13 06:53:49;;;;;;;3.75;0.57;;;23.20;99.90;;;;;;5084281;28;20189;-80
2022/12/13 06:56:20;;;;;;;2.25;0.50;;;23.10;99.90;;;;;;5082743;28;20196;-77
2022/12/13 06:58:51;;;;;;;2.22;0.40;;;23.10;99.90;;;;;;5087409;28;20192;-79
2022/12/13 07:01:24;;;;;;;3.72;0.47;;;23.10;99.90;;;;;;5081384;28;20189;-80
2022/12/13 07:03:57;;;;;;;2.00;0.50;;;23.20;99.90;;;;;;5082555;28;21169;-78
2022/12/13 07:06:30;;;;;;;1.90;0.45;;;23.00;99.90;;;;;;5085546;28;20192;-80
2022/12/13 07:09:01;;;;;;;4.00;0.47;;;22.90;99.90;;;;;;5087680;28;20271;-79
2022/12/13 07:11:34;;;;;;;3.40;0.65;;;22.80;99.90;;;;;;5083486;28;20546;-79
2022/12/13 07:14:04;;;;;;;3.65;0.43;;;22.70;99.90;;;;;;5080978;28;20221;-81
2022/12/13 07:16:35;;;;;;;1.52;0.50;;;22.70;99.90;;;;;;5086629;28;20664;-78
2022/12/13 07:19:06;;;;;;;1.10;0.35;;;22.70;99.90;;;;;;5077569;28;20205;-81
2022/12/13 07:21:39;;;;;;;3.03;0.47;;;22.70;99.90;;;;;;5083256;28;20200;-85
2022/12/13 07:24:10;;;;;;;2.83;0.70;;;22.70;99.90;;;;;;5079864;28;20234;-85
2022/12/13 07:26:41;;;;;;;6.47;0.40;;;22.70;99.90;;;;;;5076612;28;20220;-87
2022/12/13 07:29:12;;;;;;;4.88;0.50;;;22.70;99.90;;;;;;5081248;28;20205;-81
2022/12/13 07:31:43;;;;;;;1.92;0.50;;;22.50;99.90;;;;;;5084814;28;20224;-85
2022/12/13 07:34:14;;;;;;;2.55;0.47;;;22.50;99.90;;;;;;5080015;28;20197;-81
2022/12/13 07:36:47;;;;;;;3.60;0.50;;;22.40;99.90;;;;;;5084489;28;20557;-79
2022/12/13 07:39:17;;;;;;;3.30;0.50;;;22.30;99.90;;;;;;5085485;28;20224;-81
2022/12/13 07:41:48;;;;;;;4.43;0.50;;;22.20;99.90;;;;;;5086729;28;20711;-87
2022/12/13 07:44:19;;;;;;;3.35;0.60;;;22.20;99.90;;;;;;5081685;28;20283;-82
2022/12/13 07:46:50;;;;;;;5.38;1.02;;;22.20;99.90;;;;;;5087794;28;20663;-87
2022/12/13 07:49:21;;;;;;;5.32;0.60;;;22.10;99.90;;;;;;5084985;28;20212;-84
2022/12/13 07:51:53;;;;;;;3.35;0.60;;;22.10;99.90;;;;;;5085726;28;20202;-84
2022/12/13 07:54:24;;;;;;;3.67;1.40;;;22.10;99.90;;;;;;5085110;28;20197;-83
2022/12/13 07:56:55;;;;;;;3.75;0.98;;;22.10;99.90;;;;;;5085818;28;20191;-84
2022/12/13 07:59:25;;;;;;;3.05;1.00;;;22.10;99.90;;;;;;5084836;28;20215;-82
2022/12/13 08:01:56;;;;;;;4.70;0.98;;;22.10;99.90;;;;;;5090538;28;20192;-85
2022/12/13 08:04:27;;;;;;;3.35;1.00;;;22.10;99.90;;;;;;5086318;28;20248;-88
2022/12/13 08:07:00;;;;;;;3.65;0.60;;;22.10;99.90;;;;;;5086961;28;20202;-82
2022/12/13 08:09:32;;;;;;;2.60;0.50;;;22.00;99.90;;;;;;5087285;28;20215;-87
2022/12/13 08:12:02;;;;;;;3.67;0.50;;;22.00;99.90;;;;;;5083145;28;20196;-81
2022/12/13 08:14:33;;;;;;;4.32;0.60;;;21.90;99.90;;;;;;5084225;28;20201;-90
2022/12/13 08:17:04;;;;;;;3.67;0.47;;;21.80;99.90;;;;;;5082464;28;20210;-81
2022/12/13 08:19:35;;;;;;;3.13;0.50;;;21.70;99.90;;;;;;5087090;28;20208;-84
2022/12/13 08:22:08;;;;;;;2.00;0.57;;;21.70;99.90;;;;;;5085512;28;20189;-87
2022/12/13 08:24:38;;;;;;;3.45;0.57;;;21.60;99.90;;;;;;5083938;28;20193;-87
2022/12/13 08:27:09;;;;;;;2.80;0.68;;;21.50;99.90;;;;;;5085444;28;20643;-86
2022/12/13 08:29:40;;;;;;;3.00;0.60;;;21.40;99.90;;;;;;5088798;28;20216;-85
2022/12/13 08:32:12;;;;;;;1.08;0.40;;;21.30;99.90;;;;;;5081510;28;20192;-84
2022/12/13 08:34:44;;;;;;;1.98;0.50;;;21.30;99.90;;;;;;5083844;28;20197;-83
2022/12/13 08:37:18;;;;;;;3.10;0.40;;;21.20;99.90;;;;;;5082774;28;20204;-79
2022/12/13 08:39:48;;;;;;;3.90;0.60;;;21.20;99.90;;;;;;5081777;28;20193;-85
2022/12/13 08:42:20;;;;;;;1.92;0.60;;;21.20;99.90;;;;;;5084881;28;20192;-79
2022/12/13 08:44:52;;;;;;;5.10;0.50;;;21.10;99.90;;;;;;5088817;28;20313;-86
2022/12/13 08:47:24;;;;;;;2.03;0.40;;;21.10;99.90;;;;;;5086854;28;20196;-81
2022/12/13 08:49:57;;;;;;;5.53;0.90;;;21.10;99.90;;;;;;5083774;28;20223;-80
2022/12/13 08:52:31;;;;;;;3.03;0.80;;;21.10;99.90;;;;;;5083944;28;20208;-86
2022/12/13 08:55:02;;;;;;;4.07;0.98;;;21.10;99.90;;;;;;5083298;28;20197;-87
2022/12/13 08:57:33;;;;;;;3.70;0.77;;;21.00;99.90;;;;;;5082142;28;20196;-83
2022/12/13 09:00:04;;;;;;;6.38;0.80;;;21.00;99.90;;;;;;5083957;28;20200;-81
2022/12/13 09:02:37;;;;;;;2.70;0.65;;;21.00;99.90;;;;;;5084811;28;20205;-87
2022/12/13 09:05:09;;;;;;;4.78;1.00;;;21.00;99.90;;;;;;5082083;28;20193;-88
2022/12/13 09:07:42;;;;;;;2.60;0.70;;;20.90;99.90;;;;;;5086018;28;20286;-81
2022/12/13 09:10:15;;;;;;;4.70;0.82;;;20.90;99.90;;;;;;5085052;28;20220;-85
2022/12/13 09:12:45;;;;;;;5.63;0.70;;;20.90;99.90;;;;;;5086357;28;20188;-87
2022/12/13 09:15:16;;;;;;;5.00;0.77;;;20.90;99.90;;;;;;5081910;28;20195;-81
2022/12/13 09:17:47;;;;;;;3.95;0.90;;;20.80;99.90;;;;;;5086082;28;20196;-81
2022/12/13 09:20:18;;;;;;;2.85;0.63;;;20.80;99.90;;;;;;5083639;28;20193;-83
2022/12/13 09:22:53;;;;;;;7.70;0.75;;;20.80;99.90;;;;;;5083284;28;20193;-83
2022/12/13 09:25:24;;;;;;;4.13;0.82;;;20.80;99.90;;;;;;5084453;28;20299;-84
2022/12/13 09:27:55;;;;;;;5.45;0.80;;;20.80;99.90;;;;;;5082320;28;20196;-83
2022/12/13 09:30:26;;;;;;;6.05;1.08;;;20.70;99.90;;;;;;5082167;28;20219;-80
2022/12/13 09:32:57;;;;;;;2.97;0.80;;;20.70;99.90;;;;;;5084767;28;20216;-86
2022/12/13 09:35:28;;;;;;;5.95;0.80;;;20.70;99.90;;;;;;5082321;28;20563;-79
2022/12/13 09:38:01;;;;;;;4.00;0.60;;;20.70;99.90;;;;;;5081853;28;20583;-79
2022/12/13 09:40:35;;;;;;;4.45;0.40;;;20.60;99.90;;;;;;5083382;28;20200;-81
2022/12/13 09:43:07;;;;;;;5.63;0.60;;;20.60;99.90;;;;;;5083996;28;20321;-82
2022/12/13 09:45:39;;;;;;;5.22;0.80;;;20.60;99.90;;;;;;5084512;28;20232;-81
2022/12/13 09:48:10;;;;;;;4.90;0.55;;;20.60;99.90;;;;;;5083036;28;20219;-84
2022/12/13 09:50:47;;;;;;;3.78;0.60;;;20.50;99.90;;;;;;5083704;28;20261;-80
2022/12/13 09:53:25;;;;;;;2.67;0.88;;;20.50;99.90;;;;;;5082529;28;20275;-83
2022/12/13 09:55:56;;;;;;;4.30;1.20;;;20.50;99.90;;;;;;5081011;28;20287;-81
2022/12/13 09:58:30;;;;;;;6.32;1.70;;;20.50;99.90;;;;;;5082409;28;20279;-80
2022/12/13 10:01:03;;;;;;;5.25;1.88;;;20.50;99.90;;;;;;5081432;28;20192;-80
2022/12/13 10:03:33;;;;;;;5.38;1.75;;;20.50;99.90;;;;;;5082063;28;20224;-84
2022/12/13 10:06:21;;;;;;;4.88;1.02;;;20.40;99.90;;;;;;5082898;28;20201;-79
2022/12/13 10:08:56;;;;;;;4.45;0.75;;;20.40;99.90;;;;;;5079971;28;20180;-77
2022/12/13 10:11:28;;;;;;;4.32;0.77;;;20.40;99.90;;;;;;5080959;28;20215;-80
2022/12/13 10:14:06;;;;;;;4.68;0.80;;;20.40;99.90;;;;;;5079053;28;20193;-79
2022/12/13 10:16:45;;;;;;;2.50;0.70;;;20.40;99.90;;;;;;5081924;28;20204;-81
2022/12/13 10:19:20;;;;;;;2.65;0.50;;;20.40;99.90;;;;;;5078650;28;20197;-78
2022/12/13 10:21:52;;;;;;;8.02;0.75;;;20.40;99.90;;;;;;5078478;28;20199;-79
2022/12/13 10:24:29;;;;;;;5.65;0.80;;;20.40;99.90;;;;;;5080576;28;20188;-80
2022/12/13 10:27:11;;;;;;;6.53;0.70;;;20.40;99.90;;;;;;5082090;28;20736;-80
2022/12/13 10:30:04;;;;;;;4.63;0.60;;;20.30;99.90;;;;;;5080822;28;20216;-80
2022/12/13 10:32:46;;;;;;;3.38;0.70;;;20.30;99.90;;;;;;5086031;28;20202;-81
2022/12/13 10:35:29;;;;;;;4.97;0.93;;;20.30;99.90;;;;;;5080159;28;20241;-80
2022/12/13 10:38:05;;;;;;;4.32;0.50;;;20.30;99.90;;;;;;5082253;28;20242;-78
2022/12/13 10:40:39;;;;;;;3.55;0.57;;;20.30;99.90;;;;;;5080312;28;20253;-82
2022/12/13 10:43:16;;;;;;;3.33;0.80;;;20.30;99.90;;;;;;5079625;28;20224;-79
2022/12/13 10:46:02;;;;;;;5.63;0.70;;;20.20;99.90;;;;;;5082136;28;20242;-80
2022/12/13 10:48:38;;;;;;;2.92;0.82;;;20.20;99.90;;;;;;5078949;28;20197;-80
2022/12/13 10:51:11;;;;;;;1.70;0.50;;;20.20;99.90;;;;;;5083192;28;20562;-81
2022/12/13 10:56:46;;;;;;;4.43;0.70;;;20.10;99.90;;;;;;5085589;28;20283;-84
2022/12/13 10:59:37;;;;;;;5.75;0.77;;;20.10;99.90;;;;;;5081088;28;20194;-81
2022/12/13 11:02:33;;;;;;;4.45;0.75;;;20.10;99.90;;;;;;5081665;28;20203;-83
2022/12/13 11:05:24;;;;;;;2.67;0.60;;;20.10;99.90;;;;;;5082373;28;20203;-80
2022/12/13 11:07:56;;;;;;;5.28;0.55;;;20.10;99.90;;;;;;5082046;28;20185;-80
2022/12/13 11:10:28;;;;;;;3.05;0.70;;;20.00;99.90;;;;;;5087287;28;20208;-82
2022/12/13 11:13:04;;;;;;;2.70;0.60;;;20.00;99.90;;;;;;5089214;28;20244;-80
2022/12/13 11:15:37;;;;;;;4.03;0.70;;;20.00;99.90;;;;;;5083045;28;20667;-81
2022/12/13 11:18:10;;;;;;;3.75;0.55;;;20.00;99.90;;;;;;5081012;28;20184;-82
2022/12/13 11:20:56;;;;;;;2.65;0.70;;;19.90;99.90;;;;;;5081351;28;20189;-80
2022/12/13 11:23:31;;;;;;;2.50;0.65;;;19.90;99.90;;;;;;5083772;28;20207;-80
2022/12/13 11:26:12;;;;;;;2.55;0.73;;;19.90;99.90;;;;;;5085635;28;20658;-79
2022/12/13 11:29:20;;;;;;;3.10;0.80;;;19.90;99.90;;;;;;5088232;28;20717;-81
2022/12/13 11:32:05;;;;;;;3.90;0.77;;;19.80;99.90;;;;;;5087015;28;20298;-81
2022/12/13 11:34:45;;;;;;;3.80;0.65;;;19.80;99.90;;;;;;5085078;28;20225;-81
2022/12/13 11:37:27;;;;;;;2.20;0.50;;;19.80;99.90;;;;;;5092664;28;20192;-82
2022/12/13 11:40:03;;;;;;;2.63;0.80;;;19.70;99.90;;;;;;5086415;28;20678;-83
2022/12/13 11:42:41;;;;;;;2.78;0.65;;;19.70;99.90;;;;;;5086666;28;20188;-82
2022/12/13 11:45:20;;;;;;;2.67;0.70;;;19.70;99.90;;;;;;5084535;28;20607;-82
2022/12/13 11:47:54;;;;;;;3.50;0.60;;;19.70;99.90;;;;;;5084820;28;20185;-82
2022/12/13 11:50:31;;;;;;;4.35;0.88;;;19.70;99.90;;;;;;5085067;28;20602;-83
2022/12/13 11:53:12;;;;;;;5.35;0.73;;;19.60;99.90;;;;;;5086589;28;20213;-83
2022/12/13 11:55:49;;;;;;;2.78;0.60;;;19.70;99.90;;;;;;5086086;28;20207;-80
2022/12/13 11:58:32;;;;;;;3.67;0.70;;;19.70;99.90;;;;;;5084710;28;20231;-82
2022/12/13 12:01:10;;;;;;;3.97;0.77;;;19.60;99.90;;;;;;5082815;28;20280;-82
2022/12/13 12:03:46;;;;;;;4.18;0.60;;;19.60;99.90;;;;;;5084769;28;20226;-83
2022/12/13 12:06:23;;;;;;;5.53;0.93;;;19.60;99.90;;;;;;5082531;28;20185;-82
2022/12/13 12:08:59;;;;;;;4.80;0.80;;;19.50;99.90;;;;;;5084764;28;20191;-83
2022/12/13 12:11:34;;;;;;;7.43;1.00;;;19.50;99.90;;;;;;5084823;28;20268;-83
2022/12/13 12:14:11;;;;;;;3.83;0.80;;;19.50;99.90;;;;;;5085991;28;20687;-81
2022/12/13 12:16:49;;;;;;;4.53;0.73;;;19.40;99.90;;;;;;5087931;28;20192;-83
2022/12/13 12:19:22;;;;;;;5.95;0.80;;;19.30;99.90;;;;;;5084646;28;20188;-83
2022/12/13 12:22:07;;;;;;;2.17;0.60;;;19.30;99.90;;;;;;5083358;28;20257;-83
2022/12/13 12:24:48;;;;;;;5.47;1.48;;;19.30;99.90;;;;;;5084233;28;20686;-85
2022/12/13 12:27:29;;;;;;;4.20;0.80;;;19.20;99.90;;;;;;5081317;28;20197;-84
2022/12/13 12:30:15;;;;;;;2.03;0.50;;;19.20;99.90;;;;;;5082096;28;20605;-82
2022/12/13 12:32:55;;;;;;;4.15;0.95;;;19.10;99.90;;;;;;5087093;28;20687;-83
2022/12/13 12:36:01;;;;;;;2.53;0.55;;;19.00;99.90;;;;;;5083308;28;20744;-84
2022/12/13 12:38:59;;;;;;;3.22;0.60;;;19.00;99.90;;;;;;5070622;28;20224;-83
2022/12/13 12:41:36;;;;;;;5.70;0.68;;;19.00;99.90;;;;;;5087104;28;20208;-83
2022/12/13 12:44:15;;;;;;;5.43;0.63;;;19.00;99.90;;;;;;5085472;28;20207;-80
2022/12/13 12:47:05;;;;;;;3.05;0.73;;;18.90;99.90;;;;;;5088754;28;20284;-84
2022/12/13 12:50:04;;;;;;;5.55;0.68;;;18.90;99.90;;;;;;5081868;28;20659;-84
2022/12/13 12:52:47;;;;;;;3.78;0.80;;;18.90;99.90;;;;;;5083746;28;20299;-84
2022/12/13 12:55:26;;;;;;;6.45;0.90;;;18.80;99.90;;;;;;5083744;28;20263;-83
2022/12/13 12:58:05;;;;;;;5.22;0.77;;;18.70;99.90;;;;;;5088873;28;20595;-84
2022/12/13 13:00:45;;;;;;;3.75;1.05;;;18.70;99.90;;;;;;5085045;28;20184;-84
2022/12/13 13:03:20;;;;;;;4.18;0.90;;;18.60;99.90;;;;;;5095106;28;20632;-83
2022/12/13 13:05:58;;;;;;;3.17;0.90;;;18.60;99.90;;;;;;5095014;28;20200;-84
2022/12/13 13:08:35;;;;;;;3.00;0.70;;;18.60;99.90;;;;;;5090599;28;20288;-83
2022/12/13 13:11:07;;;;;;;4.50;0.95;;;18.60;99.90;;;;;;5093637;28;20218;-84
2022/12/13 13:13:46;;;;;;;4.38;0.77;;;18.60;99.90;;;;;;5095126;28;20195;-84
2022/12/13 13:16:36;;;;;;;4.22;0.90;;;18.60;99.90;;;;;;5089083;28;20227;-81
2022/12/13 13:19:27;;;;;;;4.68;0.80;;;18.50;99.90;;;;;;5094391;28;20287;-83
2022/12/13 13:22:03;;;;;;;7.05;1.05;;;18.50;99.90;;;;;;5094531;28;20219;-84
2022/12/13 13:24:34;;;;;;;2.60;0.88;;;18.50;99.90;;;;;;5095155;28;20188;-83
2022/12/13 13:27:32;;;;;;;1.33;0.70;;;18.50;99.90;;;;;;5095107;28;20200;-84
2022/12/13 13:30:11;;;;;;;2.80;0.80;;;18.40;99.90;;;;;;5085580;28;20633;-80
2022/12/13 13:32:43;;;;;;;3.83;0.82;;;18.40;99.90;;;;;;5083969;28;20709;-84
2022/12/13 13:35:56;;;;;;;3.40;0.75;;;18.40;99.90;;;;;;5094503;28;20199;-84
2022/12/13 13:38:55;;;;;;;2.15;0.90;;;18.30;99.90;;;;;;5094277;28;20246;-83